createdAt,value
2018-07-03T00:00:30.598Z,1005.38
2018-07-03T00:01:30.579Z,1005.33
2018-07-03T00:02:30.594Z,1005.37
2018-07-03T00:03:30.567Z,1005.34
2018-07-03T00:04:30.542Z,1005.38
2018-07-03T00:05:30.539Z,1005.35
2018-07-03T00:06:30.518Z,1005.36
2018-07-03T00:07:30.546Z,1005.37
2018-07-03T00:08:30.500Z,1005.41
2018-07-03T00:09:30.490Z,1005.41
2018-07-03T00:10:30.480Z,1005.37
2018-07-03T00:11:30.470Z,1005.39
2018-07-03T00:12:30.452Z,1005.43
2018-07-03T00:13:30.468Z,1005.43
2018-07-03T00:14:30.426Z,1005.38
2018-07-03T00:15:30.416Z,1005.39
2018-07-03T00:16:30.409Z,1005.40
2018-07-03T00:17:30.390Z,1005.39
2018-07-03T00:18:30.411Z,1005.41
2018-07-03T00:19:30.372Z,1005.39
2018-07-03T00:20:30.362Z,1005.39
2018-07-03T00:21:30.345Z,1005.39
2018-07-03T00:22:30.342Z,1005.42
2018-07-03T00:23:30.349Z,1005.45
2018-07-03T00:24:30.314Z,1005.43
2018-07-03T00:25:30.301Z,1005.43
2018-07-03T00:26:30.287Z,1005.37
2018-07-03T00:27:30.279Z,1005.38
2018-07-03T00:28:30.295Z,1005.39
2018-07-03T00:29:30.252Z,1005.39
2018-07-03T00:30:30.247Z,1005.48
2018-07-03T00:31:30.238Z,1005.46
2018-07-03T00:32:30.219Z,1005.45
2018-07-03T00:33:30.235Z,1005.47
2018-07-03T00:34:30.207Z,1005.46
2018-07-03T00:35:30.183Z,1005.37
2018-07-03T00:36:30.180Z,1005.43
2018-07-03T00:37:30.165Z,1005.42
2018-07-03T00:38:30.184Z,1005.40
2018-07-03T00:39:30.143Z,1005.40
2018-07-03T00:40:30.134Z,1005.37
2018-07-03T00:41:30.120Z,1005.41
2018-07-03T00:42:30.109Z,1005.37
2018-07-03T00:43:30.102Z,1005.39
2018-07-03T00:44:30.103Z,1005.43
2018-07-03T00:45:30.069Z,1005.39
2018-07-03T00:46:30.066Z,1005.31
2018-07-03T00:47:30.052Z,1005.44
2018-07-03T00:48:30.037Z,1005.41
2018-07-03T00:49:30.054Z,1005.42
2018-07-03T00:50:30.012Z,1005.46
2018-07-03T00:51:30.003Z,1005.41
2018-07-03T00:52:29.995Z,1005.48
2018-07-03T00:53:29.984Z,1005.45
2018-07-03T00:54:29.988Z,1005.39
2018-07-03T00:55:29.965Z,1005.37
2018-07-03T00:56:29.942Z,1005.34
2018-07-03T00:57:29.933Z,1005.29
2018-07-03T00:58:29.928Z,1005.29
2018-07-03T00:59:29.941Z,1005.25
2018-07-03T01:00:29.906Z,1005.31
2018-07-03T01:01:29.901Z,1005.26
2018-07-03T01:02:29.877Z,1005.29
2018-07-03T01:03:29.878Z,1005.31
2018-07-03T01:04:29.855Z,1005.25
2018-07-03T01:05:29.863Z,1005.24
2018-07-03T01:06:29.838Z,1005.25
2018-07-03T01:07:29.818Z,1005.26
2018-07-03T01:08:29.814Z,1005.29
2018-07-03T01:09:29.797Z,1005.22
2018-07-03T01:10:29.815Z,1005.20
2018-07-03T01:11:29.774Z,1005.17
2018-07-03T01:12:29.765Z,1005.22
2018-07-03T01:13:29.757Z,1005.21
2018-07-03T01:14:29.743Z,1005.20
2018-07-03T01:15:29.760Z,1005.20
2018-07-03T01:16:29.715Z,1005.18
2018-07-03T01:17:29.710Z,1005.16
2018-07-03T01:18:29.695Z,1005.18
2018-07-03T01:19:29.687Z,1005.15
2018-07-03T01:20:29.697Z,1005.17
2018-07-03T01:21:29.667Z,1005.17
2018-07-03T01:22:29.647Z,1005.15
2018-07-03T01:23:29.644Z,1005.12
2018-07-03T01:24:29.624Z,1005.15
2018-07-03T01:25:29.645Z,1005.16
2018-07-03T01:26:29.600Z,1005.19
2018-07-03T01:27:29.591Z,1005.18
2018-07-03T01:28:29.578Z,1005.17
2018-07-03T01:29:29.570Z,1005.20
2018-07-03T01:30:29.565Z,1005.22
2018-07-03T01:31:29.572Z,1005.27
2018-07-03T01:32:29.535Z,1005.19
2018-07-03T01:33:29.524Z,1005.22
2018-07-03T01:34:29.515Z,1005.20
2018-07-03T01:35:29.501Z,1005.18
2018-07-03T01:36:29.513Z,1005.19
2018-07-03T01:37:29.481Z,1005.20
2018-07-03T01:38:29.467Z,1005.20
2018-07-03T01:39:29.454Z,1005.23
2018-07-03T01:40:29.451Z,1005.24
2018-07-03T01:41:29.455Z,1005.25
2018-07-03T01:42:29.422Z,1005.25
2018-07-03T01:43:29.405Z,1005.21
2018-07-03T01:44:29.398Z,1005.17
2018-07-03T01:45:29.386Z,1005.22
2018-07-03T01:46:29.394Z,1005.21
2018-07-03T01:47:29.370Z,1005.24
2018-07-03T01:48:29.349Z,1005.32
2018-07-03T01:49:29.344Z,1005.34
2018-07-03T01:50:29.330Z,1005.32
2018-07-03T01:51:29.341Z,1005.29
2018-07-03T01:52:29.307Z,1005.29
2018-07-03T01:53:29.295Z,1005.24
2018-07-03T01:54:29.286Z,1005.26
2018-07-03T01:55:29.279Z,1005.24
2018-07-03T01:56:29.289Z,1005.24
2018-07-03T01:57:29.254Z,1005.26
2018-07-03T01:58:29.241Z,1005.25
2018-07-03T01:59:29.241Z,1005.29
2018-07-03T02:00:29.219Z,1005.26
2018-07-03T02:01:29.206Z,1005.24
2018-07-03T02:02:29.222Z,1005.25
2018-07-03T02:03:29.178Z,1005.25
2018-07-03T02:04:29.175Z,1005.19
2018-07-03T02:05:29.166Z,1005.19
2018-07-03T02:06:29.143Z,1005.20
2018-07-03T02:07:29.157Z,1005.23
2018-07-03T02:08:29.128Z,1005.19
2018-07-03T02:09:29.110Z,1005.22
2018-07-03T02:10:29.107Z,1005.22
2018-07-03T02:11:29.113Z,1005.17
2018-07-03T02:12:29.080Z,1005.18
2018-07-03T02:13:29.064Z,1005.17
2018-07-03T02:14:29.055Z,1005.13
2018-07-03T02:15:29.050Z,1005.11
2018-07-03T02:16:29.068Z,1005.13
2018-07-03T02:17:29.021Z,1005.19
2018-07-03T02:18:29.012Z,1005.15
2018-07-03T02:19:29.001Z,1005.16
2018-07-03T02:20:28.990Z,1005.09
2018-07-03T02:21:28.977Z,1005.08
2018-07-03T02:22:28.985Z,1005.10
2018-07-03T02:23:28.955Z,1005.10
2018-07-03T02:24:28.944Z,1005.06
2018-07-03T02:25:28.956Z,1004.99
2018-07-03T02:26:28.920Z,1005.00
2018-07-03T02:27:28.927Z,1005.00
2018-07-03T02:28:28.899Z,1004.98
2018-07-03T02:29:28.883Z,1004.98
2018-07-03T02:30:28.868Z,1004.97
2018-07-03T02:31:28.867Z,1004.94
2018-07-03T02:32:28.866Z,1004.95
2018-07-03T02:33:28.836Z,1004.97
2018-07-03T02:34:28.831Z,1004.94
2018-07-03T02:35:28.817Z,1005.00
2018-07-03T02:36:28.811Z,1005.00
2018-07-03T02:37:28.814Z,1005.04
2018-07-03T02:38:28.785Z,1005.00
2018-07-03T02:39:28.768Z,1004.99
2018-07-03T02:40:28.760Z,1005.00
2018-07-03T02:41:28.775Z,1005.01
2018-07-03T02:42:28.765Z,1004.99
2018-07-03T02:43:28.725Z,1005.00
2018-07-03T02:44:28.712Z,1004.99
2018-07-03T02:45:28.704Z,1004.96
2018-07-03T02:46:28.688Z,1005.01
2018-07-03T02:47:28.681Z,1005.00
2018-07-03T02:48:28.692Z,1005.05
2018-07-03T02:49:28.654Z,1004.98
2018-07-03T02:50:28.640Z,1005.02
2018-07-03T02:51:28.632Z,1005.01
2018-07-03T02:52:28.623Z,1005.01
2018-07-03T02:53:28.633Z,1005.04
2018-07-03T02:54:28.604Z,1005.04
2018-07-03T02:55:28.582Z,1005.00
2018-07-03T02:56:28.590Z,1005.00
2018-07-03T02:57:28.561Z,1005.10
2018-07-03T02:58:28.574Z,1005.09
2018-07-03T02:59:28.544Z,1005.07
2018-07-03T03:00:28.525Z,1005.02
2018-07-03T03:01:28.522Z,1004.97
2018-07-03T03:02:28.501Z,1005.01
2018-07-03T03:03:28.516Z,1004.94
2018-07-03T03:04:28.480Z,1004.96
2018-07-03T03:05:28.514Z,1004.95
2018-07-03T03:06:28.459Z,1004.99
2018-07-03T03:07:28.452Z,1005.01
2018-07-03T03:08:28.467Z,1005.00
2018-07-03T03:09:28.427Z,1005.05
2018-07-03T03:10:28.409Z,1005.05
2018-07-03T03:11:28.405Z,1005.07
2018-07-03T03:12:28.385Z,1005.04
2018-07-03T03:13:28.374Z,1005.01
2018-07-03T03:14:28.393Z,1005.03
2018-07-03T03:15:28.357Z,1004.96
2018-07-03T03:16:28.348Z,1004.92
2018-07-03T03:17:28.328Z,1004.92
2018-07-03T03:18:28.331Z,1004.97
2018-07-03T03:19:28.330Z,1004.93
2018-07-03T03:20:28.296Z,1004.99
2018-07-03T03:21:28.289Z,1004.97
2018-07-03T03:22:28.320Z,1004.92
2018-07-03T03:23:28.261Z,1004.90
2018-07-03T03:24:28.272Z,1004.91
2018-07-03T03:25:28.236Z,1004.85
2018-07-03T03:26:28.233Z,1004.85
2018-07-03T03:27:28.213Z,1004.87
2018-07-03T03:28:28.208Z,1004.95
2018-07-03T03:29:28.220Z,1004.94
2018-07-03T03:30:28.179Z,1004.93
2018-07-03T03:31:28.176Z,1004.99
2018-07-03T03:32:28.158Z,1004.98
2018-07-03T03:33:28.148Z,1004.95
2018-07-03T03:34:28.152Z,1004.95
2018-07-03T03:35:28.128Z,1004.94
2018-07-03T03:36:28.108Z,1004.94
2018-07-03T03:37:28.097Z,1004.91
2018-07-03T03:38:28.093Z,1004.93
2018-07-03T03:39:28.096Z,1004.98
2018-07-03T03:40:28.074Z,1004.98
2018-07-03T03:41:28.101Z,1004.99
2018-07-03T03:42:28.047Z,1004.99
2018-07-03T03:43:28.033Z,1005.05
2018-07-03T03:44:28.043Z,1005.07
2018-07-03T03:45:28.011Z,1005.05
2018-07-03T03:46:27.999Z,1005.00
2018-07-03T03:47:27.988Z,1005.04
2018-07-03T03:48:27.974Z,1005.03
2018-07-03T03:49:27.996Z,1005.06
2018-07-03T03:50:27.953Z,1005.08
2018-07-03T03:51:27.941Z,1005.09
2018-07-03T03:52:27.934Z,1005.08
2018-07-03T03:53:27.914Z,1005.10
2018-07-03T03:54:27.901Z,1005.12
2018-07-03T03:55:27.915Z,1005.15
2018-07-03T03:56:27.885Z,1005.10
2018-07-03T03:57:27.866Z,1005.08
2018-07-03T03:58:27.863Z,1005.12
2018-07-03T03:59:27.849Z,1005.14
2018-07-03T04:00:27.857Z,1005.10
2018-07-03T04:01:27.831Z,1005.14
2018-07-03T04:02:27.808Z,1005.09
2018-07-03T04:03:27.802Z,1005.12
2018-07-03T04:04:27.796Z,1005.16
2018-07-03T04:05:27.804Z,1005.14
2018-07-03T04:06:27.762Z,1005.16
2018-07-03T04:07:27.752Z,1005.13
2018-07-03T04:08:27.738Z,1005.12
2018-07-03T04:09:27.726Z,1005.13
2018-07-03T04:10:27.738Z,1005.10
2018-07-03T04:11:27.708Z,1005.12
2018-07-03T04:12:27.694Z,1005.07
2018-07-03T04:13:27.681Z,1005.07
2018-07-03T04:14:27.672Z,1005.04
2018-07-03T04:15:27.686Z,1005.05
2018-07-03T04:16:27.642Z,1005.03
2018-07-03T04:17:27.640Z,1005.05
2018-07-03T04:18:27.623Z,1005.07
2018-07-03T04:19:27.608Z,1005.12
2018-07-03T04:20:27.636Z,1005.14
2018-07-03T04:21:27.584Z,1005.16
2018-07-03T04:22:27.581Z,1005.15
2018-07-03T04:23:27.567Z,1005.14
2018-07-03T04:24:27.552Z,1005.17
2018-07-03T04:25:27.546Z,1005.17
2018-07-03T04:26:27.546Z,1005.18
2018-07-03T04:27:27.517Z,1005.20
2018-07-03T04:28:27.507Z,1005.18
2018-07-03T04:29:27.495Z,1005.16
2018-07-03T04:30:27.481Z,1005.22
2018-07-03T04:31:27.495Z,1005.15
2018-07-03T04:32:27.459Z,1005.20
2018-07-03T04:33:27.446Z,1005.24
2018-07-03T04:34:27.438Z,1005.27
2018-07-03T04:35:27.422Z,1005.23
2018-07-03T04:36:27.446Z,1005.25
2018-07-03T04:37:27.404Z,1005.25
2018-07-03T04:38:27.383Z,1005.20
2018-07-03T04:39:27.380Z,1005.27
2018-07-03T04:40:27.359Z,1005.29
2018-07-03T04:41:27.359Z,1005.33
2018-07-03T04:42:27.371Z,1005.31
2018-07-03T04:43:27.323Z,1005.34
2018-07-03T04:44:27.320Z,1005.35
2018-07-03T04:45:27.308Z,1005.36
2018-07-03T04:46:27.291Z,1005.38
2018-07-03T04:47:27.306Z,1005.44
2018-07-03T04:48:27.266Z,1005.43
2018-07-03T04:49:27.254Z,1005.45
2018-07-03T04:50:27.245Z,1005.44
2018-07-03T04:51:27.231Z,1005.39
2018-07-03T04:52:27.245Z,1005.33
2018-07-03T04:53:27.276Z,1005.34
2018-07-03T04:54:27.192Z,1005.29
2018-07-03T04:55:27.188Z,1005.36
2018-07-03T04:56:27.180Z,1005.30
2018-07-03T04:57:27.179Z,1005.38
2018-07-03T04:58:27.148Z,1005.37
2018-07-03T04:59:27.133Z,1005.39
2018-07-03T05:00:27.131Z,1005.33
2018-07-03T05:01:27.119Z,1005.33
2018-07-03T05:02:27.122Z,1005.40
2018-07-03T05:03:27.090Z,1005.37
2018-07-03T05:04:27.080Z,1005.37
2018-07-03T05:05:27.064Z,1005.37
2018-07-03T05:06:27.059Z,1005.39
2018-07-03T05:07:27.073Z,1005.38
2018-07-03T05:08:27.031Z,1005.37
2018-07-03T05:09:27.023Z,1005.42
2018-07-03T05:10:27.031Z,1005.41
2018-07-03T05:11:26.993Z,1005.45
2018-07-03T05:12:26.985Z,1005.47
2018-07-03T05:13:26.994Z,1005.52
2018-07-03T05:14:26.958Z,1005.52
2018-07-03T05:15:26.957Z,1005.53
2018-07-03T05:16:26.935Z,1005.52
2018-07-03T05:17:26.982Z,1005.50
2018-07-03T05:18:26.948Z,1005.55
2018-07-03T05:19:26.907Z,1005.57
2018-07-03T05:20:26.893Z,1005.56
2018-07-03T05:21:26.887Z,1005.58
2018-07-03T05:22:26.868Z,1005.59
2018-07-03T05:23:26.888Z,1005.57
2018-07-03T05:24:26.844Z,1005.58
2018-07-03T05:25:26.840Z,1005.66
2018-07-03T05:26:26.823Z,1005.58
2018-07-03T05:27:26.817Z,1005.61
2018-07-03T05:28:26.828Z,1005.62
2018-07-03T05:29:26.795Z,1005.57
2018-07-03T05:30:26.785Z,1005.55
2018-07-03T05:31:26.799Z,1005.55
2018-07-03T05:32:26.760Z,1005.57
2018-07-03T05:33:26.769Z,1005.62
2018-07-03T05:34:26.757Z,1005.61
2018-07-03T05:35:26.733Z,1005.62
2018-07-03T05:36:26.709Z,1005.61
2018-07-03T05:37:26.703Z,1005.68
2018-07-03T05:38:26.719Z,1005.64
2018-07-03T05:39:26.680Z,1005.63
2018-07-03T05:40:26.671Z,1005.66
2018-07-03T05:41:26.659Z,1005.63
2018-07-03T05:42:26.642Z,1005.62
2018-07-03T05:43:26.637Z,1005.62
2018-07-03T05:44:26.640Z,1005.59
2018-07-03T05:45:26.609Z,1005.59
2018-07-03T05:46:26.602Z,1005.60
2018-07-03T05:47:26.593Z,1005.60
2018-07-03T05:48:26.577Z,1005.61
2018-07-03T05:49:26.590Z,1005.63
2018-07-03T05:50:26.553Z,1005.67
2018-07-03T05:51:26.544Z,1005.71
2018-07-03T05:52:26.528Z,1005.71
2018-07-03T05:53:26.517Z,1005.70
2018-07-03T05:54:26.530Z,1005.66
2018-07-03T05:55:26.493Z,1005.67
2018-07-03T05:56:26.568Z,1005.67
2018-07-03T05:57:26.471Z,1005.67
2018-07-03T05:58:26.463Z,1005.66
2018-07-03T05:59:26.469Z,1005.66
2018-07-03T06:00:26.434Z,1005.66
2018-07-03T06:01:26.432Z,1005.63
2018-07-03T06:02:26.420Z,1005.62
2018-07-03T06:03:26.406Z,1005.66
2018-07-03T06:04:26.422Z,1005.74
2018-07-03T06:05:26.386Z,1005.86
2018-07-03T06:06:26.364Z,1005.90
2018-07-03T06:07:26.357Z,1005.95
2018-07-03T06:08:26.348Z,1005.97
2018-07-03T06:09:26.380Z,1005.98
2018-07-03T06:10:26.351Z,1006.01
2018-07-03T06:11:26.316Z,1006.02
2018-07-03T06:12:26.298Z,1006.03
2018-07-03T06:13:26.289Z,1006.06
2018-07-03T06:14:26.275Z,1006.04
2018-07-03T06:15:26.289Z,1006.03
2018-07-03T06:16:26.258Z,1005.96
2018-07-03T06:17:26.241Z,1005.96
2018-07-03T06:18:26.227Z,1006.00
2018-07-03T06:19:26.218Z,1005.99
2018-07-03T06:20:26.283Z,1006.05
2018-07-03T06:21:26.190Z,1006.00
2018-07-03T06:22:26.188Z,1006.05
2018-07-03T06:23:26.167Z,1006.09
2018-07-03T06:24:26.166Z,1006.01
2018-07-03T06:25:26.194Z,1006.08
2018-07-03T06:26:26.132Z,1006.08
2018-07-03T06:27:26.135Z,1006.09
2018-07-03T06:28:26.110Z,1006.09
2018-07-03T06:29:26.108Z,1006.02
2018-07-03T06:30:26.095Z,1006.01
2018-07-03T06:31:26.109Z,1006.00
2018-07-03T06:32:26.073Z,1006.07
2018-07-03T06:33:26.059Z,1006.08
2018-07-03T06:34:26.045Z,1006.06
2018-07-03T06:35:26.034Z,1006.06
2018-07-03T06:36:26.052Z,1006.03
2018-07-03T06:37:26.144Z,1006.03
2018-07-03T06:38:26.001Z,1006.06
2018-07-03T06:39:25.986Z,1006.01
2018-07-03T06:40:25.979Z,1006.07
2018-07-03T06:41:25.988Z,1006.04
2018-07-03T06:42:25.953Z,1006.04
2018-07-03T06:43:25.944Z,1006.12
2018-07-03T06:44:25.930Z,1006.09
2018-07-03T06:45:25.921Z,1006.08
2018-07-03T06:46:25.943Z,1006.07
2018-07-03T06:47:25.953Z,1006.07
2018-07-03T06:48:25.887Z,1006.10
2018-07-03T06:49:25.885Z,1006.06
2018-07-03T06:50:25.860Z,1006.08
2018-07-03T06:51:25.860Z,1006.11
2018-07-03T06:52:25.857Z,1006.05
2018-07-03T06:53:25.834Z,1006.08
2018-07-03T06:54:25.816Z,1006.13
2018-07-03T06:55:25.801Z,1006.11
2018-07-03T06:56:25.798Z,1006.15
2018-07-03T06:57:25.803Z,1006.17
2018-07-03T06:58:25.773Z,1006.14
2018-07-03T06:59:25.768Z,1006.18
2018-07-03T07:00:25.744Z,1006.20
2018-07-03T07:01:25.738Z,1006.16
2018-07-03T07:02:25.756Z,1006.20
2018-07-03T07:03:25.713Z,1006.20
2018-07-03T07:04:25.705Z,1006.21
2018-07-03T07:05:25.689Z,1006.21
2018-07-03T07:06:25.686Z,1006.17
2018-07-03T07:07:25.671Z,1006.19
2018-07-03T07:08:25.745Z,1006.18
2018-07-03T07:09:25.746Z,1006.19
2018-07-03T07:10:25.632Z,1006.19
2018-07-03T07:11:25.628Z,1006.22
2018-07-03T07:12:25.617Z,1006.22
2018-07-03T07:13:25.619Z,1006.26
2018-07-03T07:14:25.597Z,1006.27
2018-07-03T07:15:25.583Z,1006.30
2018-07-03T07:16:25.566Z,1006.26
2018-07-03T07:17:25.559Z,1006.33
2018-07-03T07:18:25.566Z,1006.25
2018-07-03T07:19:25.544Z,1006.26
2018-07-03T07:20:25.529Z,1006.25
2018-07-03T07:21:25.511Z,1006.24
2018-07-03T07:22:25.504Z,1006.23
2018-07-03T07:23:25.519Z,1006.23
2018-07-03T07:24:25.479Z,1006.28
2018-07-03T07:25:25.470Z,1006.28
2018-07-03T07:26:25.460Z,1006.21
2018-07-03T07:27:25.448Z,1006.26
2018-07-03T07:28:25.461Z,1006.24
2018-07-03T07:29:25.425Z,1006.27
2018-07-03T07:30:25.415Z,1006.27
2018-07-03T07:31:25.403Z,1006.25
2018-07-03T07:32:25.394Z,1006.24
2018-07-03T07:33:25.407Z,1006.25
2018-07-03T07:34:25.375Z,1006.31
2018-07-03T07:35:25.364Z,1006.33
2018-07-03T07:36:25.349Z,1006.25
2018-07-03T07:37:25.340Z,1006.32
2018-07-03T07:38:25.361Z,1006.33
2018-07-03T07:39:25.311Z,1006.32
2018-07-03T07:40:25.310Z,1006.36
2018-07-03T07:41:25.292Z,1006.37
2018-07-03T07:42:25.286Z,1006.28
2018-07-03T07:43:25.271Z,1006.33
2018-07-03T07:44:25.282Z,1006.34
2018-07-03T07:45:25.251Z,1006.37
2018-07-03T07:47:25.230Z,1006.35
2018-07-03T07:48:25.216Z,1006.29
2018-07-03T07:49:25.232Z,1006.37
2018-07-03T07:50:25.197Z,1006.36
2018-07-03T07:51:25.191Z,1006.28
2018-07-03T07:52:25.175Z,1006.31
2018-07-03T07:53:25.162Z,1006.33
2018-07-03T07:54:25.174Z,1006.31
2018-07-03T07:55:25.148Z,1006.27
2018-07-03T07:56:25.174Z,1006.31
2018-07-03T07:57:25.122Z,1006.35
2018-07-03T07:58:25.109Z,1006.36
2018-07-03T07:59:25.117Z,1006.30
2018-07-03T08:00:25.121Z,1006.31
2018-07-03T08:01:25.078Z,1006.33
2018-07-03T08:02:25.070Z,1006.30
2018-07-03T08:03:25.067Z,1006.37
2018-07-03T08:04:25.065Z,1006.36
2018-07-03T08:05:25.035Z,1006.34
2018-07-03T08:06:25.031Z,1006.30
2018-07-03T08:07:25.021Z,1006.33
2018-07-03T08:08:25.001Z,1006.29
2018-07-03T08:09:25.028Z,1006.32
2018-07-03T08:10:24.985Z,1006.33
2018-07-03T08:11:24.970Z,1006.27
2018-07-03T08:12:24.969Z,1006.25
2018-07-03T08:13:25.025Z,1006.25
2018-07-03T08:14:24.936Z,1006.21
2018-07-03T08:15:24.955Z,1006.22
2018-07-03T08:16:24.926Z,1006.24
2018-07-03T08:17:24.909Z,1006.21
2018-07-03T08:18:24.904Z,1006.24
2018-07-03T08:19:24.890Z,1006.18
2018-07-03T08:20:24.899Z,1006.23
2018-07-03T08:21:24.865Z,1006.22
2018-07-03T08:22:24.864Z,1006.20
2018-07-03T08:23:24.844Z,1006.20
2018-07-03T08:24:24.843Z,1006.25
2018-07-03T08:25:24.855Z,1006.29
2018-07-03T08:26:24.819Z,1006.31
2018-07-03T08:27:24.812Z,1006.27
2018-07-03T08:28:24.795Z,1006.28
2018-07-03T08:29:24.788Z,1006.32
2018-07-03T08:30:24.795Z,1006.32
2018-07-03T08:31:24.769Z,1006.33
2018-07-03T08:32:24.777Z,1006.34
2018-07-03T08:33:24.742Z,1006.32
2018-07-03T08:34:24.735Z,1006.30
2018-07-03T08:35:24.744Z,1006.28
2018-07-03T08:36:24.722Z,1006.35
2018-07-03T08:37:24.702Z,1006.35
2018-07-03T08:38:24.690Z,1006.32
2018-07-03T08:39:24.682Z,1006.31
2018-07-03T08:40:24.698Z,1006.32
2018-07-03T08:41:24.660Z,1006.30
2018-07-03T08:42:24.660Z,1006.27
2018-07-03T08:43:24.646Z,1006.30
2018-07-03T08:44:24.634Z,1006.26
2018-07-03T08:45:24.624Z,1006.27
2018-07-03T08:46:24.641Z,1006.25
2018-07-03T08:47:24.605Z,1006.30
2018-07-03T08:48:24.650Z,1006.31
2018-07-03T08:49:24.589Z,1006.31
2018-07-03T08:50:24.575Z,1006.32
2018-07-03T08:51:24.589Z,1006.30
2018-07-03T08:52:24.555Z,1006.31
2018-07-03T08:53:24.543Z,1006.30
2018-07-03T08:54:24.536Z,1006.34
2018-07-03T08:55:24.530Z,1006.32
2018-07-03T08:56:24.553Z,1006.31
2018-07-03T08:57:24.507Z,1006.24
2018-07-03T08:58:24.501Z,1006.25
2018-07-03T08:59:24.489Z,1006.26
2018-07-03T09:00:24.483Z,1006.28
2018-07-03T09:01:24.475Z,1006.27
2018-07-03T09:02:24.485Z,1006.26
2018-07-03T09:03:24.455Z,1006.27
2018-07-03T09:04:24.448Z,1006.29
2018-07-03T09:05:24.436Z,1006.27
2018-07-03T09:06:24.423Z,1006.27
2018-07-03T09:07:24.438Z,1006.24
2018-07-03T09:08:24.405Z,1006.29
2018-07-03T09:09:24.401Z,1006.28
2018-07-03T09:10:24.387Z,1006.33
2018-07-03T09:11:24.392Z,1006.33
2018-07-03T09:12:24.396Z,1006.30
2018-07-03T09:13:24.360Z,1006.31
2018-07-03T09:14:24.348Z,1006.33
2018-07-03T09:15:24.341Z,1006.33
2018-07-03T09:16:24.336Z,1006.39
2018-07-03T09:17:24.344Z,1006.31
2018-07-03T09:18:24.325Z,1006.32
2018-07-03T09:19:24.303Z,1006.30
2018-07-03T09:20:24.303Z,1006.32
2018-07-03T09:21:24.296Z,1006.29
2018-07-03T09:22:24.306Z,1006.30
2018-07-03T09:23:24.276Z,1006.31
2018-07-03T09:24:24.258Z,1006.27
2018-07-03T09:25:24.257Z,1006.24
2018-07-03T09:26:24.241Z,1006.20
2018-07-03T09:27:24.256Z,1006.20
2018-07-03T09:28:24.224Z,1006.19
2018-07-03T09:29:24.214Z,1006.21
2018-07-03T09:30:24.261Z,1006.17
2018-07-03T09:31:24.208Z,1006.18
2018-07-03T09:32:24.217Z,1006.21
2018-07-03T09:33:24.192Z,1006.19
2018-07-03T09:34:24.173Z,1006.22
2018-07-03T09:35:24.175Z,1006.22
2018-07-03T09:36:24.166Z,1006.24
2018-07-03T09:37:24.168Z,1006.20
2018-07-03T09:38:24.145Z,1006.22
2018-07-03T09:39:24.127Z,1006.28
2018-07-03T09:40:24.131Z,1006.22
2018-07-03T09:41:24.110Z,1006.24
2018-07-03T09:42:24.140Z,1006.18
2018-07-03T09:43:24.096Z,1006.20
2018-07-03T09:44:24.087Z,1006.23
2018-07-03T09:45:24.083Z,1006.21
2018-07-03T09:46:24.071Z,1006.22
2018-07-03T09:47:24.088Z,1006.16
2018-07-03T09:48:24.047Z,1006.16
2018-07-03T09:49:24.044Z,1006.15
2018-07-03T09:50:24.032Z,1006.10
2018-07-03T09:51:24.022Z,1006.08
2018-07-03T09:52:24.044Z,1006.12
2018-07-03T09:53:24.008Z,1006.10
2018-07-03T09:54:24.004Z,1006.10
2018-07-03T09:55:23.999Z,1006.06
2018-07-03T09:56:23.980Z,1006.07
2018-07-03T09:57:24.003Z,1006.08
2018-07-03T09:58:23.973Z,1006.09
2018-07-03T09:59:23.965Z,1006.08
2018-07-03T10:00:23.956Z,1006.07
2018-07-03T10:01:23.948Z,1006.05
2018-07-03T10:02:23.957Z,1006.09
2018-07-03T10:03:23.924Z,1006.07
2018-07-03T10:04:23.927Z,1006.10
2018-07-03T10:05:23.912Z,1006.03
2018-07-03T10:06:23.905Z,1006.06
2018-07-03T10:07:23.933Z,1006.09
2018-07-03T10:08:23.885Z,1006.06
2018-07-03T10:09:23.882Z,1006.06
2018-07-03T10:10:23.875Z,1006.13
2018-07-03T10:11:23.870Z,1006.13
2018-07-03T10:12:23.859Z,1006.11
2018-07-03T10:13:23.870Z,1006.17
2018-07-03T10:14:23.847Z,1006.14
2018-07-03T10:15:23.831Z,1006.12
2018-07-03T10:16:23.825Z,1006.11
2018-07-03T10:17:23.822Z,1006.07
2018-07-03T10:18:23.833Z,1006.07
2018-07-03T10:19:23.806Z,1006.14
2018-07-03T10:20:23.789Z,1006.13
2018-07-03T10:21:23.782Z,1006.08
2018-07-03T10:22:23.812Z,1006.11
2018-07-03T10:23:23.799Z,1006.12
2018-07-03T10:24:23.761Z,1006.13
2018-07-03T10:25:23.757Z,1006.10
2018-07-03T10:26:23.739Z,1006.12
2018-07-03T10:27:23.742Z,1006.09
2018-07-03T10:28:23.725Z,1006.08
2018-07-03T10:29:23.740Z,1006.14
2018-07-03T10:30:23.714Z,1006.13
2018-07-03T10:31:23.720Z,1006.08
2018-07-03T10:32:23.696Z,1006.12
2018-07-03T10:33:23.691Z,1006.11
2018-07-03T10:34:23.711Z,1006.08
2018-07-03T10:35:23.673Z,1006.05
2018-07-03T10:36:23.660Z,1006.04
2018-07-03T10:37:23.661Z,1006.05
2018-07-03T10:38:23.648Z,1006.01
2018-07-03T10:39:23.667Z,1005.99
2018-07-03T10:40:23.627Z,1006.02
2018-07-03T10:41:23.620Z,1006.02
2018-07-03T10:42:23.621Z,1006.03
2018-07-03T10:43:23.607Z,1006.01
2018-07-03T10:44:23.628Z,1006.01
2018-07-03T10:45:23.595Z,1005.98
2018-07-03T10:46:23.592Z,1006.00
2018-07-03T10:47:23.581Z,1006.00
2018-07-03T10:48:23.575Z,1006.02
2018-07-03T10:49:23.595Z,1006.06
2018-07-03T10:50:23.549Z,1006.04
2018-07-03T10:51:23.545Z,1005.99
2018-07-03T10:52:23.541Z,1006.00
2018-07-03T10:53:23.531Z,1006.02
2018-07-03T10:54:23.523Z,1005.96
2018-07-03T10:55:23.540Z,1005.93
2018-07-03T10:56:23.511Z,1005.99
2018-07-03T10:57:23.498Z,1005.96
2018-07-03T10:58:23.493Z,1005.94
2018-07-03T10:59:23.496Z,1005.93
2018-07-03T11:00:23.494Z,1005.88
2018-07-03T11:01:23.475Z,1005.88
2018-07-03T11:02:23.462Z,1005.92
2018-07-03T11:03:23.461Z,1005.94
2018-07-03T11:04:23.441Z,1005.90
2018-07-03T11:05:23.467Z,1005.91
2018-07-03T11:06:23.429Z,1005.89
2018-07-03T11:07:23.425Z,1005.87
2018-07-03T11:08:23.420Z,1005.85
2018-07-03T11:09:23.412Z,1005.86
2018-07-03T11:10:23.395Z,1005.85
2018-07-03T11:11:23.418Z,1005.85
2018-07-03T11:12:23.379Z,1005.80
2018-07-03T11:13:23.372Z,1005.80
2018-07-03T11:14:23.375Z,1005.78
2018-07-03T11:15:23.356Z,1005.81
2018-07-03T11:16:23.380Z,1005.80
2018-07-03T11:17:23.341Z,1005.81
2018-07-03T11:18:23.343Z,1005.81
2018-07-03T11:19:23.332Z,1005.81
2018-07-03T11:20:23.321Z,1005.81
2018-07-03T11:21:23.339Z,1005.79
2018-07-03T11:22:23.306Z,1005.76
2018-07-03T11:23:23.303Z,1005.82
2018-07-03T11:24:23.286Z,1005.77
2018-07-03T11:25:23.281Z,1005.78
2018-07-03T11:26:23.303Z,1005.74
2018-07-03T11:27:23.262Z,1005.75
2018-07-03T11:28:23.263Z,1005.74
2018-07-03T11:29:23.257Z,1005.73
2018-07-03T11:30:23.238Z,1005.72
2018-07-03T11:31:23.270Z,1005.74
2018-07-03T11:32:23.225Z,1005.72
2018-07-03T11:33:23.220Z,1005.69
2018-07-03T11:34:23.212Z,1005.69
2018-07-03T11:35:23.206Z,1005.69
2018-07-03T11:36:23.198Z,1005.71
2018-07-03T11:37:23.208Z,1005.68
2018-07-03T11:38:23.183Z,1005.69
2018-07-03T11:39:23.165Z,1005.68
2018-07-03T11:40:23.166Z,1005.66
2018-07-03T11:41:23.178Z,1005.63
2018-07-03T11:42:23.141Z,1005.58
2018-07-03T11:43:23.138Z,1005.60
2018-07-03T11:44:23.132Z,1005.65
2018-07-03T11:45:23.117Z,1005.64
2018-07-03T11:46:23.141Z,1005.60
2018-07-03T11:47:23.107Z,1005.59
2018-07-03T11:48:23.096Z,1005.55
2018-07-03T11:49:23.085Z,1005.54
2018-07-03T11:50:23.086Z,1005.59
2018-07-03T11:51:23.107Z,1005.56
2018-07-03T11:52:23.064Z,1005.55
2018-07-03T11:53:23.062Z,1005.52
2018-07-03T11:54:23.054Z,1005.53
2018-07-03T11:55:23.041Z,1005.55
2018-07-03T11:56:23.041Z,1005.47
2018-07-03T11:57:23.050Z,1005.48
2018-07-03T11:58:23.023Z,1005.42
2018-07-03T11:59:23.008Z,1005.42
2018-07-03T12:00:23.007Z,1005.46
2018-07-03T12:01:23.000Z,1005.44
2018-07-03T12:02:23.008Z,1005.40
2018-07-03T12:03:22.979Z,1005.37
2018-07-03T12:04:22.965Z,1005.37
2018-07-03T12:05:22.959Z,1005.40
2018-07-03T12:06:22.954Z,1005.39